Ringling, Montana
Current Conditions -  °F | °C
As of 8:56 AM on Tuesday 21 Oct 2014 (Local Time) from KBZN Reporting Station
Overcast Overcast  
Wind Chill: 50°   Ceiling: 8000
Heat Index: 50°   Visibility: 10mi
Dew Point: 39°   Wind: 9mph
Humidity: 66%   Direction: 180°S
Pressure: 29.76"   Gusts: NA
Location:  46.27°N, 110.81°W
Report Text: KBZN 211456Z 18008KT 10SM OVC080 10/04 A2976 RMK AO2 SLP066 60000 T01000039 55002
Loading
Personal Weather Stations






























Interactive Weather Map
Tropical Storm Tracking
New forecast layout! Learn more

10-Day Weather Forecast

Advertisements
Track Severe Weather on mobile